sensor_id;sensor_type;location;lat;lon;timestamp;P1;durP1;ratioP1;P2;durP2;ratioP2
30862;SDS011;17573;55.922;37.540;2023-07-24T00:00:17;6.93;;;4.13;;
30862;SDS011;17573;55.922;37.540;2023-07-24T00:02:43;15.20;;;4.45;;
30862;SDS011;17573;55.922;37.540;2023-07-24T00:05:09;6.03;;;4.40;;
30862;SDS011;17573;55.922;37.540;2023-07-24T00:07:35;12.45;;;4.75;;
30862;SDS011;17573;55.922;37.540;2023-07-24T00:10:01;11.13;;;4.60;;
30862;SDS011;17573;55.922;37.540;2023-07-24T00:12:31;8.95;;;4.45;;
30862;SDS011;17573;55.922;37.540;2023-07-24T00:14:57;16.40;;;4.60;;
30862;SDS011;17573;55.922;37.540;2023-07-24T00:17:23;8.13;;;4.50;;
30862;SDS011;17573;55.922;37.540;2023-07-24T00:19:49;9.02;;;4.80;;
30862;SDS011;17573;55.922;37.540;2023-07-24T00:22:16;8.95;;;4.82;;
30862;SDS011;17573;55.922;37.540;2023-07-24T00:24:42;13.48;;;4.68;;
30862;SDS011;17573;55.922;37.540;2023-07-24T00:27:08;5.53;;;4.93;;
30862;SDS011;17573;55.922;37.540;2023-07-24T00:29:34;5.43;;;4.07;;
30862;SDS011;17573;55.922;37.540;2023-07-24T00:32:00;7.50;;;4.30;;
30862;SDS011;17573;55.922;37.540;2023-07-24T00:34:25;7.65;;;4.80;;
30862;SDS011;17573;55.922;37.540;2023-07-24T00:36:51;12.02;;;4.55;;
30862;SDS011;17573;55.922;37.540;2023-07-24T00:39:17;11.85;;;4.90;;
30862;SDS011;17573;55.922;37.540;2023-07-24T00:41:43;9.77;;;5.53;;
30862;SDS011;17573;55.922;37.540;2023-07-24T00:44:09;10.70;;;5.40;;
30862;SDS011;17573;55.922;37.540;2023-07-24T00:46:35;14.95;;;4.53;;
30862;SDS011;17573;55.922;37.540;2023-07-24T00:49:02;8.27;;;4.43;;
30862;SDS011;17573;55.922;37.540;2023-07-24T00:51:30;6.72;;;4.57;;
30862;SDS011;17573;55.922;37.540;2023-07-24T00:53:57;5.07;;;4.32;;
30862;SDS011;17573;55.922;37.540;2023-07-24T00:56:26;12.70;;;4.53;;
30862;SDS011;17573;55.922;37.540;2023-07-24T00:58:54;8.18;;;4.38;;
30862;SDS011;17573;55.922;37.540;2023-07-24T01:01:23;8.52;;;4.60;;
30862;SDS011;17573;55.922;37.540;2023-07-24T01:03:50;6.55;;;4.72;;
30862;SDS011;17573;55.922;37.540;2023-07-24T01:06:16;8.40;;;4.20;;
30862;SDS011;17573;55.922;37.540;2023-07-24T01:08:42;10.30;;;4.55;;
30862;SDS011;17573;55.922;37.540;2023-07-24T01:13:43;8.63;;;4.55;;
30862;SDS011;17573;55.922;37.540;2023-07-24T01:16:14;16.35;;;4.82;;
30862;SDS011;17573;55.922;37.540;2023-07-24T01:18:40;11.40;;;5.15;;
30862;SDS011;17573;55.922;37.540;2023-07-24T01:21:09;12.82;;;4.55;;
30862;SDS011;17573;55.922;37.540;2023-07-24T01:23:38;11.55;;;4.80;;
30862;SDS011;17573;55.922;37.540;2023-07-24T01:26:11;5.15;;;4.55;;
30862;SDS011;17573;55.922;37.540;2023-07-24T01:28:37;6.15;;;4.68;;
30862;SDS011;17573;55.922;37.540;2023-07-24T01:31:05;12.60;;;4.22;;
30862;SDS011;17573;55.922;37.540;2023-07-24T01:33:31;6.90;;;4.07;;
30862;SDS011;17573;55.922;37.540;2023-07-24T01:35:59;9.48;;;5.05;;
30862;SDS011;17573;55.922;37.540;2023-07-24T01:38:26;8.68;;;4.72;;
30862;SDS011;17573;55.922;37.540;2023-07-24T01:40:53;16.30;;;5.57;;
30862;SDS011;17573;55.922;37.540;2023-07-24T01:43:19;7.88;;;5.20;;
30862;SDS011;17573;55.922;37.540;2023-07-24T01:45:45;16.38;;;5.28;;
30862;SDS011;17573;55.922;37.540;2023-07-24T01:48:11;11.48;;;4.93;;
30862;SDS011;17573;55.922;37.540;2023-07-24T01:50:37;9.95;;;4.32;;
30862;SDS011;17573;55.922;37.540;2023-07-24T01:53:03;12.38;;;4.60;;
30862;SDS011;17573;55.922;37.540;2023-07-24T01:55:29;10.20;;;4.53;;
30862;SDS011;17573;55.922;37.540;2023-07-24T01:57:54;10.63;;;4.63;;
30862;SDS011;17573;55.922;37.540;2023-07-24T02:00:20;19.80;;;5.65;;
30862;SDS011;17573;55.922;37.540;2023-07-24T02:02:57;27.67;;;6.90;;
30862;SDS011;17573;55.922;37.540;2023-07-24T02:05:23;18.40;;;5.10;;
30862;SDS011;17573;55.922;37.540;2023-07-24T02:07:49;8.57;;;5.05;;
30862;SDS011;17573;55.922;37.540;2023-07-24T02:10:15;4.80;;;4.30;;
30862;SDS011;17573;55.922;37.540;2023-07-24T02:12:40;13.27;;;4.63;;
30862;SDS011;17573;55.922;37.540;2023-07-24T02:15:07;9.43;;;3.95;;
30862;SDS011;17573;55.922;37.540;2023-07-24T02:17:35;11.48;;;4.82;;
30862;SDS011;17573;55.922;37.540;2023-07-24T02:20:02;5.47;;;4.18;;
30862;SDS011;17573;55.922;37.540;2023-07-24T02:22:48;7.97;;;4.80;;
30862;SDS011;17573;55.922;37.540;2023-07-24T02:25:14;5.68;;;4.78;;
30862;SDS011;17573;55.922;37.540;2023-07-24T02:27:40;7.43;;;4.40;;
30862;SDS011;17573;55.922;37.540;2023-07-24T02:30:06;17.40;;;5.13;;
30862;SDS011;17573;55.922;37.540;2023-07-24T02:32:35;7.43;;;4.80;;
30862;SDS011;17573;55.922;37.540;2023-07-24T02:35:01;9.52;;;5.18;;
30862;SDS011;17573;55.922;37.540;2023-07-24T02:37:31;23.65;;;4.55;;
30862;SDS011;17573;55.922;37.540;2023-07-24T02:39:57;11.48;;;4.30;;
30862;SDS011;17573;55.922;37.540;2023-07-24T02:42:23;9.82;;;4.45;;
30862;SDS011;17573;55.922;37.540;2023-07-24T02:44:50;10.32;;;4.75;;
30862;SDS011;17573;55.922;37.540;2023-07-24T02:47:16;9.90;;;4.47;;
30862;SDS011;17573;55.922;37.540;2023-07-24T02:49:43;7.25;;;4.30;;
30862;SDS011;17573;55.922;37.540;2023-07-24T02:52:09;17.23;;;4.85;;
30862;SDS011;17573;55.922;37.540;2023-07-24T02:54:35;11.70;;;4.07;;
30862;SDS011;17573;55.922;37.540;2023-07-24T02:57:01;5.57;;;4.03;;
30862;SDS011;17573;55.922;37.540;2023-07-24T02:59:28;6.15;;;4.20;;
30862;SDS011;17573;55.922;37.540;2023-07-24T03:01:55;9.18;;;3.78;;
30862;SDS011;17573;55.922;37.540;2023-07-24T03:04:21;7.13;;;4.30;;
30862;SDS011;17573;55.922;37.540;2023-07-24T03:06:49;6.07;;;4.10;;
30862;SDS011;17573;55.922;37.540;2023-07-24T03:09:14;6.18;;;3.60;;
30862;SDS011;17573;55.922;37.540;2023-07-24T03:11:40;6.68;;;3.58;;
30862;SDS011;17573;55.922;37.540;2023-07-24T03:14:06;10.68;;;3.75;;
30862;SDS011;17573;55.922;37.540;2023-07-24T03:16:32;5.70;;;3.97;;
30862;SDS011;17573;55.922;37.540;2023-07-24T03:18:58;7.65;;;3.67;;
30862;SDS011;17573;55.922;37.540;2023-07-24T03:21:23;6.55;;;4.13;;
30862;SDS011;17573;55.922;37.540;2023-07-24T03:23:49;6.82;;;4.00;;
30862;SDS011;17573;55.922;37.540;2023-07-24T03:26:15;6.97;;;3.75;;
30862;SDS011;17573;55.922;37.540;2023-07-24T03:28:41;4.70;;;4.25;;
30862;SDS011;17573;55.922;37.540;2023-07-24T03:31:07;10.57;;;4.38;;
30862;SDS011;17573;55.922;37.540;2023-07-24T03:33:32;5.47;;;4.03;;
30862;SDS011;17573;55.922;37.540;2023-07-24T03:35:58;10.38;;;3.78;;
30862;SDS011;17573;55.922;37.540;2023-07-24T03:38:24;7.07;;;3.78;;
30862;SDS011;17573;55.922;37.540;2023-07-24T03:40:51;8.15;;;3.35;;
30862;SDS011;17573;55.922;37.540;2023-07-24T03:43:17;7.80;;;4.05;;
30862;SDS011;17573;55.922;37.540;2023-07-24T03:45:42;14.07;;;4.93;;
30862;SDS011;17573;55.922;37.540;2023-07-24T03:48:09;4.93;;;3.50;;
30862;SDS011;17573;55.922;37.540;2023-07-24T03:50:35;8.18;;;3.75;;
30862;SDS011;17573;55.922;37.540;2023-07-24T03:53:00;6.50;;;3.50;;
30862;SDS011;17573;55.922;37.540;2023-07-24T03:55:26;7.43;;;3.90;;
30862;SDS011;17573;55.922;37.540;2023-07-24T03:57:52;8.05;;;3.85;;
30862;SDS011;17573;55.922;37.540;2023-07-24T04:00:18;5.28;;;3.67;;
30862;SDS011;17573;55.922;37.540;2023-07-24T04:02:44;9.00;;;4.10;;
30862;SDS011;17573;55.922;37.540;2023-07-24T04:05:10;7.13;;;3.95;;
30862;SDS011;17573;55.922;37.540;2023-07-24T04:07:36;8.95;;;3.75;;
30862;SDS011;17573;55.922;37.540;2023-07-24T04:10:02;16.17;;;4.50;;
30862;SDS011;17573;55.922;37.540;2023-07-24T04:12:29;11.27;;;3.60;;
30862;SDS011;17573;55.922;37.540;2023-07-24T04:14:55;8.25;;;3.75;;
30862;SDS011;17573;55.922;37.540;2023-07-24T04:17:21;7.70;;;3.58;;
30862;SDS011;17573;55.922;37.540;2023-07-24T04:19:47;8.80;;;4.00;;
30862;SDS011;17573;55.922;37.540;2023-07-24T04:22:13;3.88;;;3.30;;
30862;SDS011;17573;55.922;37.540;2023-07-24T04:24:39;10.52;;;3.90;;
30862;SDS011;17573;55.922;37.540;2023-07-24T04:27:04;10.57;;;4.32;;
30862;SDS011;17573;55.922;37.540;2023-07-24T04:29:30;8.25;;;4.07;;
30862;SDS011;17573;55.922;37.540;2023-07-24T04:31:56;8.30;;;3.80;;
30862;SDS011;17573;55.922;37.540;2023-07-24T04:34:22;10.93;;;3.72;;
30862;SDS011;17573;55.922;37.540;2023-07-24T04:36:48;7.20;;;4.35;;
30862;SDS011;17573;55.922;37.540;2023-07-24T04:39:13;5.70;;;3.95;;
30862;SDS011;17573;55.922;37.540;2023-07-24T04:41:39;13.93;;;4.22;;
30862;SDS011;17573;55.922;37.540;2023-07-24T04:44:05;12.57;;;4.30;;
30862;SDS011;17573;55.922;37.540;2023-07-24T04:46:31;9.00;;;3.42;;
30862;SDS011;17573;55.922;37.540;2023-07-24T04:48:57;7.50;;;3.53;;
30862;SDS011;17573;55.922;37.540;2023-07-24T04:51:22;4.00;;;3.50;;
30862;SDS011;17573;55.922;37.540;2023-07-24T04:53:48;11.82;;;3.95;;
30862;SDS011;17573;55.922;37.540;2023-07-24T04:56:14;5.07;;;3.45;;
30862;SDS011;17573;55.922;37.540;2023-07-24T04:58:39;5.47;;;3.20;;
30862;SDS011;17573;55.922;37.540;2023-07-24T05:01:05;5.60;;;3.33;;
30862;SDS011;17573;55.922;37.540;2023-07-24T05:03:31;6.55;;;3.30;;
30862;SDS011;17573;55.922;37.540;2023-07-24T05:05:57;8.93;;;3.80;;
30862;SDS011;17573;55.922;37.540;2023-07-24T05:08:23;6.32;;;3.47;;
30862;SDS011;17573;55.922;37.540;2023-07-24T05:10:58;9.10;;;3.45;;
30862;SDS011;17573;55.922;37.540;2023-07-24T05:13:25;5.70;;;4.05;;
30862;SDS011;17573;55.922;37.540;2023-07-24T05:15:52;7.00;;;4.20;;
30862;SDS011;17573;55.922;37.540;2023-07-24T05:18:17;9.15;;;4.25;;
30862;SDS011;17573;55.922;37.540;2023-07-24T05:20:47;4.78;;;3.60;;
30862;SDS011;17573;55.922;37.540;2023-07-24T05:23:14;8.32;;;4.70;;
30862;SDS011;17573;55.922;37.540;2023-07-24T05:25:41;6.28;;;4.10;;
30862;SDS011;17573;55.922;37.540;2023-07-24T05:28:06;7.05;;;3.97;;
30862;SDS011;17573;55.922;37.540;2023-07-24T05:30:32;7.68;;;2.75;;
30862;SDS011;17573;55.922;37.540;2023-07-24T05:32:59;4.05;;;3.13;;
30862;SDS011;17573;55.922;37.540;2023-07-24T05:35:25;8.52;;;3.80;;
30862;SDS011;17573;55.922;37.540;2023-07-24T05:37:51;13.60;;;3.30;;
30862;SDS011;17573;55.922;37.540;2023-07-24T05:40:17;8.02;;;3.42;;
30862;SDS011;17573;55.922;37.540;2023-07-24T05:42:43;6.93;;;3.60;;
30862;SDS011;17573;55.922;37.540;2023-07-24T05:45:10;9.15;;;3.15;;
30862;SDS011;17573;55.922;37.540;2023-07-24T05:47:36;15.63;;;3.55;;
30862;SDS011;17573;55.922;37.540;2023-07-24T05:50:03;16.15;;;5.22;;
30862;SDS011;17573;55.922;37.540;2023-07-24T05:52:30;5.82;;;3.83;;
30862;SDS011;17573;55.922;37.540;2023-07-24T05:54:55;14.63;;;3.58;;
30862;SDS011;17573;55.922;37.540;2023-07-24T05:57:21;5.43;;;3.65;;
30862;SDS011;17573;55.922;37.540;2023-07-24T05:59:47;14.05;;;3.20;;
30862;SDS011;17573;55.922;37.540;2023-07-24T06:02:13;14.40;;;3.00;;
30862;SDS011;17573;55.922;37.540;2023-07-24T06:04:39;5.80;;;3.28;;
30862;SDS011;17573;55.922;37.540;2023-07-24T06:07:05;8.25;;;3.25;;
30862;SDS011;17573;55.922;37.540;2023-07-24T06:09:31;8.85;;;2.95;;
30862;SDS011;17573;55.922;37.540;2023-07-24T06:11:58;6.47;;;3.15;;
30862;SDS011;17573;55.922;37.540;2023-07-24T06:14:23;10.73;;;3.55;;
30862;SDS011;17573;55.922;37.540;2023-07-24T06:16:49;12.73;;;4.97;;
30862;SDS011;17573;55.922;37.540;2023-07-24T06:19:15;12.15;;;3.10;;
30862;SDS011;17573;55.922;37.540;2023-07-24T06:21:41;4.72;;;3.70;;
30862;SDS011;17573;55.922;37.540;2023-07-24T06:24:07;10.38;;;3.10;;
30862;SDS011;17573;55.922;37.540;2023-07-24T06:26:37;14.82;;;3.40;;
30862;SDS011;17573;55.922;37.540;2023-07-24T06:29:03;10.32;;;3.40;;
30862;SDS011;17573;55.922;37.540;2023-07-24T06:31:29;11.20;;;3.72;;
30862;SDS011;17573;55.922;37.540;2023-07-24T06:33:55;4.82;;;2.45;;
30862;SDS011;17573;55.922;37.540;2023-07-24T06:36:21;14.85;;;3.58;;
30862;SDS011;17573;55.922;37.540;2023-07-24T06:38:48;11.95;;;3.53;;
30862;SDS011;17573;55.922;37.540;2023-07-24T06:41:14;18.52;;;3.60;;
30862;SDS011;17573;55.922;37.540;2023-07-24T06:43:41;6.05;;;3.30;;
30862;SDS011;17573;55.922;37.540;2023-07-24T06:46:08;9.07;;;3.90;;
30862;SDS011;17573;55.922;37.540;2023-07-24T06:48:34;10.93;;;3.97;;
30862;SDS011;17573;55.922;37.540;2023-07-24T06:50:59;3.58;;;2.78;;
30862;SDS011;17573;55.922;37.540;2023-07-24T06:53:26;7.65;;;2.70;;
30862;SDS011;17573;55.922;37.540;2023-07-24T06:55:52;4.55;;;2.78;;
30862;SDS011;17573;55.922;37.540;2023-07-24T06:58:18;7.50;;;2.75;;
30862;SDS011;17573;55.922;37.540;2023-07-24T07:00:44;8.75;;;3.60;;
30862;SDS011;17573;55.922;37.540;2023-07-24T07:03:09;4.78;;;3.38;;
30862;SDS011;17573;55.922;37.540;2023-07-24T07:05:35;4.80;;;2.78;;
30862;SDS011;17573;55.922;37.540;2023-07-24T07:08:01;15.45;;;3.17;;
30862;SDS011;17573;55.922;37.540;2023-07-24T07:10:27;10.30;;;2.88;;
30862;SDS011;17573;55.922;37.540;2023-07-24T07:12:52;7.00;;;3.08;;
30862;SDS011;17573;55.922;37.540;2023-07-24T07:15:18;6.45;;;3.40;;
30862;SDS011;17573;55.922;37.540;2023-07-24T07:17:44;10.90;;;3.67;;
30862;SDS011;17573;55.922;37.540;2023-07-24T07:20:11;7.43;;;3.10;;
30862;SDS011;17573;55.922;37.540;2023-07-24T07:22:36;15.88;;;4.43;;
30862;SDS011;17573;55.922;37.540;2023-07-24T07:25:02;11.77;;;3.45;;
30862;SDS011;17573;55.922;37.540;2023-07-24T07:27:30;8.35;;;3.15;;
30862;SDS011;17573;55.922;37.540;2023-07-24T07:29:56;6.25;;;3.30;;
30862;SDS011;17573;55.922;37.540;2023-07-24T07:32:23;6.20;;;2.83;;
30862;SDS011;17573;55.922;37.540;2023-07-24T07:34:50;6.32;;;2.95;;
30862;SDS011;17573;55.922;37.540;2023-07-24T07:37:16;9.57;;;3.10;;
30862;SDS011;17573;55.922;37.540;2023-07-24T07:39:42;5.45;;;2.95;;
30862;SDS011;17573;55.922;37.540;2023-07-24T07:42:07;5.18;;;3.28;;
30862;SDS011;17573;55.922;37.540;2023-07-24T07:44:33;17.33;;;4.43;;
30862;SDS011;17573;55.922;37.540;2023-07-24T07:46:59;10.98;;;2.40;;
30862;SDS011;17573;55.922;37.540;2023-07-24T07:49:26;10.00;;;4.18;;
30862;SDS011;17573;55.922;37.540;2023-07-24T07:51:51;8.85;;;4.07;;
30862;SDS011;17573;55.922;37.540;2023-07-24T07:54:17;8.55;;;3.03;;
30862;SDS011;17573;55.922;37.540;2023-07-24T07:56:44;9.52;;;3.53;;
30862;SDS011;17573;55.922;37.540;2023-07-24T07:59:09;7.47;;;3.15;;
30862;SDS011;17573;55.922;37.540;2023-07-24T08:01:38;9.40;;;3.00;;
30862;SDS011;17573;55.922;37.540;2023-07-24T08:04:07;7.75;;;3.67;;
30862;SDS011;17573;55.922;37.540;2023-07-24T08:06:33;5.15;;;2.65;;
30862;SDS011;17573;55.922;37.540;2023-07-24T08:08:59;9.20;;;3.78;;
30862;SDS011;17573;55.922;37.540;2023-07-24T08:11:25;29.15;;;6.53;;
30862;SDS011;17573;55.922;37.540;2023-07-24T08:13:51;24.00;;;6.50;;
30862;SDS011;17573;55.922;37.540;2023-07-24T08:16:17;39.40;;;8.10;;
30862;SDS011;17573;55.922;37.540;2023-07-24T08:18:47;11.75;;;4.05;;
30862;SDS011;17573;55.922;37.540;2023-07-24T08:21:14;10.40;;;3.97;;
30862;SDS011;17573;55.922;37.540;2023-07-24T08:23:40;8.35;;;3.72;;
30862;SDS011;17573;55.922;37.540;2023-07-24T08:26:06;6.80;;;4.05;;
30862;SDS011;17573;55.922;37.540;2023-07-24T08:28:33;14.27;;;4.30;;
30862;SDS011;17573;55.922;37.540;2023-07-24T08:31:00;25.27;;;4.95;;
30862;SDS011;17573;55.922;37.540;2023-07-24T08:33:28;9.27;;;3.40;;
30862;SDS011;17573;55.922;37.540;2023-07-24T08:36:14;6.32;;;3.72;;
30862;SDS011;17573;55.922;37.540;2023-07-24T08:38:40;10.70;;;3.72;;
30862;SDS011;17573;55.922;37.540;2023-07-24T08:43:33;5.57;;;3.42;;
30862;SDS011;17573;55.922;37.540;2023-07-24T08:46:00;11.38;;;3.38;;
30862;SDS011;17573;55.922;37.540;2023-07-24T08:48:28;8.25;;;3.47;;
30862;SDS011;17573;55.922;37.540;2023-07-24T08:50:56;14.75;;;3.63;;
30862;SDS011;17573;55.922;37.540;2023-07-24T08:53:23;10.00;;;4.07;;
30862;SDS011;17573;55.922;37.540;2023-07-24T08:55:49;9.40;;;3.70;;
30862;SDS011;17573;55.922;37.540;2023-07-24T08:58:17;23.13;;;4.68;;
30862;SDS011;17573;55.922;37.540;2023-07-24T09:00:43;6.75;;;3.83;;
30862;SDS011;17573;55.922;37.540;2023-07-24T09:03:08;10.88;;;4.07;;
30862;SDS011;17573;55.922;37.540;2023-07-24T09:05:34;11.70;;;5.03;;
30862;SDS011;17573;55.922;37.540;2023-07-24T09:08:00;6.97;;;3.45;;
30862;SDS011;17573;55.922;37.540;2023-07-24T09:10:26;7.97;;;3.72;;
30862;SDS011;17573;55.922;37.540;2023-07-24T09:12:52;14.68;;;4.18;;
30862;SDS011;17573;55.922;37.540;2023-07-24T09:15:18;7.75;;;3.80;;
30862;SDS011;17573;55.922;37.540;2023-07-24T09:17:50;12.88;;;3.88;;
30862;SDS011;17573;55.922;37.540;2023-07-24T09:20:17;9.48;;;4.28;;
30862;SDS011;17573;55.922;37.540;2023-07-24T09:22:50;9.07;;;4.47;;
30862;SDS011;17573;55.922;37.540;2023-07-24T09:25:16;5.28;;;2.83;;
30862;SDS011;17573;55.922;37.540;2023-07-24T09:27:42;7.60;;;4.18;;
30862;SDS011;17573;55.922;37.540;2023-07-24T09:30:15;13.25;;;4.07;;
30862;SDS011;17573;55.922;37.540;2023-07-24T09:35:17;9.82;;;4.57;;
30862;SDS011;17573;55.922;37.540;2023-07-24T09:37:43;18.75;;;5.03;;
30862;SDS011;17573;55.922;37.540;2023-07-24T09:40:10;11.60;;;5.45;;
30862;SDS011;17573;55.922;37.540;2023-07-24T09:42:37;14.02;;;6.05;;
30862;SDS011;17573;55.922;37.540;2023-07-24T09:45:03;9.52;;;6.32;;
30862;SDS011;17573;55.922;37.540;2023-07-24T09:47:32;7.97;;;5.00;;
30862;SDS011;17573;55.922;37.540;2023-07-24T09:49:59;14.05;;;5.97;;
30862;SDS011;17573;55.922;37.540;2023-07-24T09:52:26;13.65;;;6.15;;
30862;SDS011;17573;55.922;37.540;2023-07-24T09:57:22;14.50;;;6.07;;
30862;SDS011;17573;55.922;37.540;2023-07-24T09:59:49;11.90;;;6.28;;
30862;SDS011;17573;55.922;37.540;2023-07-24T10:02:17;12.35;;;6.13;;
30862;SDS011;17573;55.922;37.540;2023-07-24T10:04:43;11.43;;;8.02;;
30862;SDS011;17573;55.922;37.540;2023-07-24T10:07:09;13.57;;;7.13;;
30862;SDS011;17573;55.922;37.540;2023-07-24T10:09:35;13.13;;;7.07;;
30862;SDS011;17573;55.922;37.540;2023-07-24T10:12:02;12.82;;;7.07;;
30862;SDS011;17573;55.922;37.540;2023-07-24T10:14:28;16.58;;;7.43;;
30862;SDS011;17573;55.922;37.540;2023-07-24T10:16:56;10.55;;;7.15;;
30862;SDS011;17573;55.922;37.540;2023-07-24T10:19:22;14.13;;;7.10;;
30862;SDS011;17573;55.922;37.540;2023-07-24T10:21:48;14.05;;;6.32;;
30862;SDS011;17573;55.922;37.540;2023-07-24T10:24:15;15.75;;;6.65;;
30862;SDS011;17573;55.922;37.540;2023-07-24T10:26:41;13.43;;;4.63;;
30862;SDS011;17573;55.922;37.540;2023-07-24T10:29:07;7.85;;;4.72;;
30862;SDS011;17573;55.922;37.540;2023-07-24T10:31:33;10.27;;;5.57;;
30862;SDS011;17573;55.922;37.540;2023-07-24T10:34:06;8.52;;;3.92;;
30862;SDS011;17573;55.922;37.540;2023-07-24T10:36:35;10.25;;;4.63;;
30862;SDS011;17573;55.922;37.540;2023-07-24T10:39:12;12.05;;;5.80;;
30862;SDS011;17573;55.922;37.540;2023-07-24T10:41:39;8.25;;;5.50;;
30862;SDS011;17573;55.922;37.540;2023-07-24T10:44:05;12.95;;;4.88;;
30862;SDS011;17573;55.922;37.540;2023-07-24T10:46:38;8.73;;;5.13;;
30862;SDS011;17573;55.922;37.540;2023-07-24T10:49:05;13.05;;;6.22;;
30862;SDS011;17573;55.922;37.540;2023-07-24T10:51:32;7.97;;;5.32;;
30862;SDS011;17573;55.922;37.540;2023-07-24T10:53:59;9.15;;;4.72;;
30862;SDS011;17573;55.922;37.540;2023-07-24T10:56:27;9.05;;;4.75;;
30862;SDS011;17573;55.922;37.540;2023-07-24T10:58:53;7.57;;;4.97;;
30862;SDS011;17573;55.922;37.540;2023-07-24T11:01:19;10.25;;;4.63;;
30862;SDS011;17573;55.922;37.540;2023-07-24T11:03:44;8.00;;;5.00;;
30862;SDS011;17573;55.922;37.540;2023-07-24T11:06:14;13.55;;;4.15;;
30862;SDS011;17573;55.922;37.540;2023-07-24T11:08:41;6.15;;;4.45;;
30862;SDS011;17573;55.922;37.540;2023-07-24T11:11:07;10.18;;;5.15;;
30862;SDS011;17573;55.922;37.540;2023-07-24T11:13:33;13.90;;;4.78;;
30862;SDS011;17573;55.922;37.540;2023-07-24T11:16:06;7.07;;;5.35;;
30862;SDS011;17573;55.922;37.540;2023-07-24T11:18:43;5.95;;;3.95;;
30862;SDS011;17573;55.922;37.540;2023-07-24T11:21:11;11.82;;;4.53;;
30862;SDS011;17573;55.922;37.540;2023-07-24T11:23:37;10.75;;;5.43;;
30862;SDS011;17573;55.922;37.540;2023-07-24T11:26:03;12.60;;;5.18;;
30862;SDS011;17573;55.922;37.540;2023-07-24T11:28:38;8.10;;;4.95;;
30862;SDS011;17573;55.922;37.540;2023-07-24T11:31:04;8.85;;;5.47;;
30862;SDS011;17573;55.922;37.540;2023-07-24T11:33:30;13.77;;;7.18;;
30862;SDS011;17573;55.922;37.540;2023-07-24T11:35:56;9.05;;;5.60;;
30862;SDS011;17573;55.922;37.540;2023-07-24T11:38:22;7.00;;;5.03;;
30862;SDS011;17573;55.922;37.540;2023-07-24T11:40:48;9.55;;;5.18;;
30862;SDS011;17573;55.922;37.540;2023-07-24T11:43:24;10.10;;;5.53;;
30862;SDS011;17573;55.922;37.540;2023-07-24T11:45:51;9.50;;;5.38;;
30862;SDS011;17573;55.922;37.540;2023-07-24T11:48:18;18.15;;;6.75;;
30862;SDS011;17573;55.922;37.540;2023-07-24T11:50:45;9.57;;;5.07;;
30862;SDS011;17573;55.922;37.540;2023-07-24T11:53:45;8.30;;;6.28;;
30862;SDS011;17573;55.922;37.540;2023-07-24T11:56:12;13.65;;;6.95;;
30862;SDS011;17573;55.922;37.540;2023-07-24T11:58:39;13.93;;;6.55;;
30862;SDS011;17573;55.922;37.540;2023-07-24T12:01:05;9.73;;;6.10;;
30862;SDS011;17573;55.922;37.540;2023-07-24T12:03:31;12.27;;;5.97;;
30862;SDS011;17573;55.922;37.540;2023-07-24T12:05:57;10.63;;;6.30;;
30862;SDS011;17573;55.922;37.540;2023-07-24T12:09:00;10.32;;;6.22;;
30862;SDS011;17573;55.922;37.540;2023-07-24T12:11:15;12.77;;;6.85;;
30862;SDS011;17573;55.922;37.540;2023-07-24T12:13:44;16.48;;;7.97;;
30862;SDS011;17573;55.922;37.540;2023-07-24T12:16:10;13.48;;;6.88;;
30862;SDS011;17573;55.922;37.540;2023-07-24T12:18:35;12.95;;;7.25;;
30862;SDS011;17573;55.922;37.540;2023-07-24T12:21:01;15.30;;;6.10;;
30862;SDS011;17573;55.922;37.540;2023-07-24T12:23:27;9.88;;;6.70;;
30862;SDS011;17573;55.922;37.540;2023-07-24T12:25:53;6.93;;;5.40;;
30862;SDS011;17573;55.922;37.540;2023-07-24T12:28:19;9.98;;;6.15;;
30862;SDS011;17573;55.922;37.540;2023-07-24T12:30:45;10.35;;;6.75;;
30862;SDS011;17573;55.922;37.540;2023-07-24T12:33:11;15.13;;;7.32;;
30862;SDS011;17573;55.922;37.540;2023-07-24T12:35:37;13.95;;;7.05;;
30862;SDS011;17573;55.922;37.540;2023-07-24T12:38:02;11.73;;;5.40;;
30862;SDS011;17573;55.922;37.540;2023-07-24T12:40:28;7.43;;;5.40;;
30862;SDS011;17573;55.922;37.540;2023-07-24T12:42:54;9.23;;;6.35;;
30862;SDS011;17573;55.922;37.540;2023-07-24T12:45:20;9.48;;;6.32;;
30862;SDS011;17573;55.922;37.540;2023-07-24T12:47:46;9.65;;;5.80;;
30862;SDS011;17573;55.922;37.540;2023-07-24T12:50:12;9.38;;;6.18;;
30862;SDS011;17573;55.922;37.540;2023-07-24T12:52:38;7.50;;;6.05;;
30862;SDS011;17573;55.922;37.540;2023-07-24T12:55:04;8.50;;;6.18;;
30862;SDS011;17573;55.922;37.540;2023-07-24T12:57:30;15.25;;;6.28;;
30862;SDS011;17573;55.922;37.540;2023-07-24T12:59:56;17.42;;;6.85;;
30862;SDS011;17573;55.922;37.540;2023-07-24T13:02:22;10.70;;;6.45;;
30862;SDS011;17573;55.922;37.540;2023-07-24T13:04:48;12.18;;;6.82;;
30862;SDS011;17573;55.922;37.540;2023-07-24T13:07:14;11.15;;;6.43;;
30862;SDS011;17573;55.922;37.540;2023-07-24T13:09:40;10.77;;;7.40;;
30862;SDS011;17573;55.922;37.540;2023-07-24T13:12:06;10.45;;;7.07;;
30862;SDS011;17573;55.922;37.540;2023-07-24T13:14:33;8.82;;;6.35;;
30862;SDS011;17573;55.922;37.540;2023-07-24T13:16:58;18.60;;;7.38;;
30862;SDS011;17573;55.922;37.540;2023-07-24T13:19:24;12.80;;;7.05;;
30862;SDS011;17573;55.922;37.540;2023-07-24T13:21:50;13.27;;;7.13;;
30862;SDS011;17573;55.922;37.540;2023-07-24T13:24:16;15.68;;;6.85;;
30862;SDS011;17573;55.922;37.540;2023-07-24T13:26:42;10.45;;;6.57;;
30862;SDS011;17573;55.922;37.540;2023-07-24T13:29:09;15.32;;;6.90;;
30862;SDS011;17573;55.922;37.540;2023-07-24T13:31:35;9.60;;;7.28;;
30862;SDS011;17573;55.922;37.540;2023-07-24T13:34:01;9.23;;;7.05;;
30862;SDS011;17573;55.922;37.540;2023-07-24T13:36:27;8.65;;;6.57;;
30862;SDS011;17573;55.922;37.540;2023-07-24T13:38:53;11.13;;;7.55;;
30862;SDS011;17573;55.922;37.540;2023-07-24T13:41:19;17.95;;;7.32;;
30862;SDS011;17573;55.922;37.540;2023-07-24T13:43:45;9.50;;;7.53;;
30862;SDS011;17573;55.922;37.540;2023-07-24T13:46:11;17.58;;;7.85;;
30862;SDS011;17573;55.922;37.540;2023-07-24T13:48:37;9.15;;;6.90;;
30862;SDS011;17573;55.922;37.540;2023-07-24T13:51:02;11.48;;;7.15;;
30862;SDS011;17573;55.922;37.540;2023-07-24T13:53:28;7.82;;;6.60;;
30862;SDS011;17573;55.922;37.540;2023-07-24T13:55:54;13.35;;;7.10;;
30862;SDS011;17573;55.922;37.540;2023-07-24T13:58:20;10.50;;;7.30;;
30862;SDS011;17573;55.922;37.540;2023-07-24T14:00:45;15.85;;;7.50;;
30862;SDS011;17573;55.922;37.540;2023-07-24T14:03:11;19.25;;;7.38;;
30862;SDS011;17573;55.922;37.540;2023-07-24T14:05:37;17.75;;;8.80;;
30862;SDS011;17573;55.922;37.540;2023-07-24T14:08:04;11.45;;;7.85;;
30862;SDS011;17573;55.922;37.540;2023-07-24T14:10:30;14.15;;;7.00;;
30862;SDS011;17573;55.922;37.540;2023-07-24T14:12:56;12.90;;;8.68;;
30862;SDS011;17573;55.922;37.540;2023-07-24T14:15:22;12.68;;;7.32;;
30862;SDS011;17573;55.922;37.540;2023-07-24T14:17:48;9.48;;;6.88;;
30862;SDS011;17573;55.922;37.540;2023-07-24T14:20:13;11.35;;;7.57;;
30862;SDS011;17573;55.922;37.540;2023-07-24T14:22:39;12.35;;;7.22;;
30862;SDS011;17573;55.922;37.540;2023-07-24T14:25:05;9.07;;;7.07;;
30862;SDS011;17573;55.922;37.540;2023-07-24T14:27:32;14.25;;;7.32;;
30862;SDS011;17573;55.922;37.540;2023-07-24T14:29:58;12.20;;;7.53;;
30862;SDS011;17573;55.922;37.540;2023-07-24T14:32:24;12.15;;;7.30;;
30862;SDS011;17573;55.922;37.540;2023-07-24T14:34:50;12.52;;;7.07;;